Rivesville, WV (26588)

5:49 AM EDT on July 24, 2016 (GMT -0400)
Arnettsville | | Change Station
Active Advisory: Heat Advisory

Elev 1188 ft 39.59 °N, 80.09 °W | Updated 10 minutes ago

Scattered Clouds
Scattered Clouds
68.5 °F
Feels Like 68.5 °F
N
0.0
Wind Variable Wind from ESE

Today
High -- | Low -- °F
--% Chance of Precip.
Yesterday
High -- | Low -- °F
Precip. -- in
Pressure 30.01 in
Visibility 4.0 miles
Clouds Scattered Clouds 3900 ft
Dew Point 67 °F
Humidity 96%
Rainfall 0.00 in
Snow Depth Not available.
6:13 AM 8:40 PM
Waning Gibbous, 78% visible
METAR KMGW 240853Z AUTO 20004KT 4SM BR SCT039 23/21 A3004 RMK AO2 SLP160 T02280211 53003
Pressure 30.01 in
Visibility 4.0 miles
Clouds Scattered Clouds 3900 ft
Dew Point 67 °F
Humidity 96%
Rainfall 0.00 in
Snow Depth Not available.
6:13 AM 8:40 PM
Waning Gibbous, 78% visible
METAR KMGW 240853Z AUTO 20004KT 4SM BR SCT039 23/21 A3004 RMK AO2 SLP160 T02280211 53003

10-Day Weather Forecast

Almanac

Astronomy

Jul. 24, 2016 Rise Set
Actual Time
Civil Twilight
Nautical Twilight
Astronomical Twilight
Moon
Length of Visible Light
Length of Day
Tomorrow will be .
, % of the Moon is Illuminated

Today's Extremes

State Highs State Lows

Community

WunderPhotos

Upload Photos

1,927,042 photos uploaded!

WunderBlog® & News

Nearby

Air Quality

  Air Quality AQ Index Pollutant
Not available.

Snow Depth

Station Depth Elevation

Earthquake Activity

City Distance Mag. Time & Date
Minimum magnitude displayed is 2.5.

Coastal Water Temperatures

Place Temperature

Stations

Nearby Weather Stations

Station Location Temp. Windchill Dew Point Humidity Wind Precip. Elev Updated Type
                   

Watches & Warnings

Heat Advisory
Issued: 1:47 AM EDT Jul. 24, 2016 – National Weather Service

... Heat advisory in effect from noon today to 8 PM EDT this
evening...

The National Weather Service in Pittsburgh has issued a heat
advisory... which is in effect from noon today to 8 PM EDT this
evening.

* Heat index values... 100 to 105 during the afternoon and early
evening hours.

* High temperatures... lower to mid 90s.

* Dewpoints... lower 70s.

* Impacts... heat related illnesses will begin to be seen. If you
are susceptible to heat... limit your outdoor activity.

Precautionary/preparedness actions...

A heat advisory means that a period of hot temperatures is
expected. The combination of hot temperatures and high humidity
will combine to create a situation in which heat illnesses are
possible. Drink plenty of fluids... stay in an air-conditioned
room... stay out of the sun... and check up on relatives and
neighbors.